createdAt,value
2022-10-21T10:43:01.315Z,5.00
2022-10-21T10:45:06.381Z,6.20
2022-10-21T10:47:15.774Z,5.40
2022-10-21T10:48:43.710Z,6.00
2022-10-21T10:50:33.851Z,5.60
2022-10-21T10:52:34.157Z,5.60
2022-10-21T10:57:44.166Z,5.10
2022-10-21T10:59:06.274Z,4.90
2022-10-21T11:00:34.210Z,4.90
2022-10-21T11:07:33.420Z,5.90
2022-10-21T11:10:03.276Z,4.80
2022-10-21T11:12:01.770Z,6.20
2022-10-21T11:14:17.582Z,5.50
2022-10-21T11:16:04.402Z,5.60
2022-10-21T11:18:36.048Z,5.30
2022-10-21T11:20:06.069Z,5.40
2022-10-21T11:22:33.327Z,5.50
2022-10-21T11:26:14.922Z,5.20
2022-10-21T11:27:52.101Z,6.20
2022-10-21T11:30:01.877Z,5.20
2022-10-21T11:33:13.307Z,5.50
2022-10-21T11:37:02.637Z,6.00
2022-10-21T11:39:21.743Z,5.60
2022-10-21T11:45:45.328Z,5.70
2022-10-21T11:47:32.504Z,5.80
2022-10-21T11:50:47.729Z,5.50
2022-10-21T11:53:47.340Z,4.70
2022-10-21T11:55:45.205Z,4.50
2022-10-21T11:58:23.827Z,4.20
2022-10-21T12:00:42.483Z,5.00
2022-10-21T12:02:12.591Z,5.00
2022-10-21T12:04:10.710Z,4.30
2022-10-21T12:06:09.242Z,4.50
2022-10-21T12:08:11.439Z,4.60
2022-10-21T12:09:42.035Z,4.80
2022-10-21T12:11:10.907Z,5.30
2022-10-21T12:16:03.339Z,6.60
2022-10-21T12:18:06.622Z,6.50
2022-10-21T12:21:43.445Z,9.90
2022-10-21T12:23:12.340Z,8.50
2022-10-21T12:25:42.123Z,15.70
2022-10-21T12:29:28.399Z,9.50
2022-10-21T12:32:10.282Z,8.10
2022-10-21T12:33:38.798Z,6.10
2022-10-21T12:36:09.161Z,6.60
2022-10-21T12:38:39.773Z,5.30
2022-10-21T12:41:00.514Z,6.70
2022-10-21T12:43:07.067Z,6.30
2022-10-21T12:45:11.724Z,7.60
2022-10-21T12:51:07.580Z,7.00
2022-10-21T12:53:08.039Z,7.20
2022-10-21T12:55:37.215Z,6.50
2022-10-21T12:59:26.634Z,6.60
2022-10-21T13:02:30.229Z,6.50
2022-10-21T13:11:17.561Z,7.80
2022-10-21T13:13:56.869Z,7.10
2022-10-21T13:16:19.388Z,7.20
2022-10-21T13:19:38.199Z,7.40
2022-10-21T13:23:28.652Z,7.50
2022-10-21T13:25:25.885Z,8.80
2022-10-21T13:29:26.430Z,7.60
2022-10-21T13:31:24.313Z,8.50
2022-10-21T13:32:56.220Z,7.60
2022-10-21T13:35:42.704Z,8.40
2022-10-21T13:39:07.539Z,7.50
2022-10-21T13:41:03.854Z,7.40
2022-10-21T13:44:30.712Z,6.70
2022-10-21T13:46:00.430Z,7.20
2022-10-21T13:49:56.717Z,7.40
2022-10-21T13:54:17.938Z,7.10
2022-10-21T13:56:16.887Z,7.10
2022-10-21T13:57:43.821Z,6.50
2022-10-21T14:00:08.017Z,6.90
2022-10-21T14:02:10.112Z,7.10
2022-10-21T14:03:40.891Z,6.40
2022-10-21T14:07:22.628Z,6.60
2022-10-21T14:08:51.541Z,6.90
2022-10-21T14:10:20.917Z,7.10
2022-10-21T14:11:51.595Z,6.30
2022-10-21T14:17:58.396Z,6.80
2022-10-21T14:19:27.098Z,6.70
2022-10-21T14:20:58.574Z,6.70
2022-10-21T14:23:26.278Z,7.00
2022-10-21T14:27:08.611Z,6.40
2022-10-21T14:28:55.434Z,6.90
2022-10-21T14:30:25.893Z,6.90
2022-10-21T14:32:27.739Z,7.20
2022-10-21T14:33:56.666Z,6.30
2022-10-21T14:41:24.426Z,6.00
2022-10-21T14:43:53.166Z,6.60
2022-10-21T14:45:23.225Z,6.30
2022-10-21T14:52:35.070Z,6.00
2022-10-21T14:58:23.629Z,5.40
2022-10-21T15:00:12.151Z,6.30
2022-10-21T15:01:41.125Z,6.50
2022-10-21T15:05:01.898Z,6.20
2022-10-21T15:07:50.196Z,6.70
2022-10-21T15:13:39.663Z,8.00
2022-10-21T15:16:41.699Z,7.60
2022-10-21T15:20:09.203Z,6.70
2022-10-21T15:22:10.404Z,6.20
2022-10-21T15:25:53.006Z,5.70
2022-10-21T15:27:52.123Z,5.20
2022-10-21T15:31:34.107Z,5.40
2022-10-21T15:33:02.324Z,5.00
2022-10-21T15:35:32.671Z,6.10
2022-10-21T15:44:16.218Z,5.50
2022-10-21T15:48:19.383Z,11.20
2022-10-21T15:52:22.006Z,7.70
2022-10-21T15:53:50.078Z,7.00
2022-10-21T15:55:20.760Z,6.40
2022-10-21T15:56:53.346Z,6.20
2022-10-21T15:58:21.094Z,6.50
2022-10-21T16:04:19.537Z,6.40
2022-10-21T16:11:59.511Z,7.30
2022-10-21T16:13:50.988Z,6.80
2022-10-21T16:21:21.475Z,8.20
2022-10-21T16:23:21.957Z,9.90
2022-10-21T16:25:55.241Z,7.60
2022-10-21T16:29:38.240Z,7.50
2022-10-21T16:34:37.849Z,7.80
2022-10-21T16:39:51.997Z,8.90
2022-10-21T16:42:45.282Z,9.70
2022-10-21T16:45:26.676Z,9.10
2022-10-21T16:52:17.628Z,10.60
2022-10-21T16:54:57.357Z,10.70
2022-10-21T17:01:18.873Z,7.50
2022-10-21T17:05:16.051Z,7.50
2022-10-21T17:11:01.555Z,7.20
2022-10-21T17:19:18.522Z,6.70
2022-10-21T17:20:50.621Z,6.60
2022-10-21T17:25:20.633Z,7.20
2022-10-21T17:27:09.324Z,8.40
2022-10-21T17:31:39.086Z,7.10
2022-10-21T17:33:59.864Z,7.60
2022-10-21T17:35:31.704Z,7.60
2022-10-21T17:37:53.695Z,6.80
2022-10-21T17:40:47.604Z,7.60
2022-10-21T17:43:47.017Z,6.90
2022-10-21T17:48:25.765Z,9.70
2022-10-21T17:50:24.398Z,9.50
2022-10-21T17:51:56.247Z,10.90
2022-10-21T17:54:14.900Z,8.80
2022-10-21T17:56:24.612Z,9.00
2022-10-21T17:58:56.342Z,8.90
2022-10-21T18:00:27.241Z,10.00
2022-10-21T18:03:06.129Z,8.90
2022-10-21T18:04:37.321Z,8.50
2022-10-21T18:12:04.442Z,9.20
2022-10-21T18:14:00.602Z,9.10
2022-10-21T18:16:00.417Z,9.90
2022-10-21T18:18:31.038Z,10.00
2022-10-21T18:20:34.945Z,10.50
2022-10-21T18:22:05.739Z,11.00
2022-10-21T18:25:05.719Z,12.40
2022-10-21T18:26:34.217Z,12.30
2022-10-21T18:31:09.351Z,11.30
2022-10-21T18:32:37.539Z,13.10
2022-10-21T18:35:05.955Z,12.50
2022-10-21T18:39:26.541Z,11.40
2022-10-21T18:41:02.184Z,11.30
2022-10-21T18:42:24.749Z,11.50
2022-10-21T18:43:54.533Z,11.90
2022-10-21T18:50:56.311Z,10.50
2022-10-21T18:52:43.950Z,10.70
2022-10-21T18:55:58.149Z,11.10
2022-10-21T18:57:37.321Z,10.90
2022-10-21T19:00:07.346Z,10.60
2022-10-21T19:02:32.245Z,11.70
2022-10-21T19:04:22.586Z,11.50
2022-10-21T19:06:11.265Z,11.80
2022-10-21T19:07:44.953Z,13.20
2022-10-21T19:09:12.166Z,11.70
2022-10-21T19:12:28.079Z,21.10
2022-10-21T19:14:45.005Z,19.80
2022-10-21T19:16:26.934Z,17.80
2022-10-21T19:18:12.666Z,17.20
2022-10-21T19:19:45.591Z,17.30
2022-10-21T19:21:31.757Z,16.90
2022-10-21T19:23:02.865Z,17.90
2022-10-21T19:26:36.176Z,15.60
2022-10-21T19:28:52.347Z,16.20
2022-10-21T19:30:22.892Z,12.70
2022-10-21T19:31:50.624Z,14.50
2022-10-21T19:32:50.634Z,14.80
2022-10-21T19:33:50.700Z,13.20
2022-10-21T19:34:50.684Z,13.80
2022-10-21T19:38:03.267Z,20.70
2022-10-21T19:40:35.286Z,22.60
2022-10-21T19:41:34.209Z,21.90
2022-10-21T19:42:33.675Z,22.50
2022-10-21T19:43:33.412Z,20.00
2022-10-21T19:47:13.722Z,18.20
2022-10-21T19:50:56.005Z,15.90
2022-10-21T19:54:35.240Z,14.90
2022-10-21T19:56:38.128Z,14.10
2022-10-21T19:58:39.756Z,20.50
2022-10-21T20:01:44.773Z,18.10
2022-10-21T20:05:09.306Z,14.20
2022-10-21T20:07:47.815Z,15.70
2022-10-21T20:09:54.452Z,12.60
2022-10-21T20:11:34.566Z,13.90
2022-10-21T20:13:07.282Z,14.60
2022-10-21T20:16:45.105Z,16.40
2022-10-21T20:18:15.666Z,11.70
2022-10-21T20:20:44.524Z,11.60
2022-10-21T20:26:24.214Z,11.10
2022-10-21T20:33:09.062Z,9.20
2022-10-21T20:35:57.340Z,9.10
2022-10-21T20:37:48.959Z,8.60
2022-10-21T20:45:48.044Z,7.90
2022-10-21T20:47:20.831Z,7.30
2022-10-21T20:49:42.599Z,7.00
2022-10-21T20:54:00.355Z,8.40
2022-10-21T20:57:24.371Z,7.60
2022-10-21T21:00:15.431Z,6.80
2022-10-21T21:03:49.835Z,7.10
2022-10-21T21:05:00.641Z,7.40
2022-10-21T21:06:31.707Z,7.50
2022-10-21T21:14:32.445Z,7.20
2022-10-21T21:17:53.203Z,6.30
2022-10-21T21:25:24.968Z,6.40
2022-10-21T21:27:44.770Z,6.10
2022-10-21T21:29:58.165Z,6.10
2022-10-21T21:31:30.848Z,6.00
2022-10-21T21:33:39.725Z,6.00
2022-10-21T21:36:56.196Z,6.30
2022-10-21T21:39:01.958Z,6.00
2022-10-21T21:43:15.348Z,5.70
2022-10-21T21:44:51.722Z,5.40
2022-10-21T21:46:49.903Z,6.00
2022-10-21T21:51:38.751Z,5.10
2022-10-21T21:54:29.668Z,5.40
2022-10-21T21:56:54.441Z,4.90
2022-10-21T22:04:59.260Z,4.90
2022-10-21T22:07:40.860Z,5.00
2022-10-21T22:10:38.530Z,4.40
2022-10-21T22:12:42.819Z,6.00
2022-10-21T22:14:12.005Z,7.00
2022-10-21T22:16:42.029Z,4.70
2022-10-21T22:22:04.918Z,4.90
2022-10-21T22:25:05.073Z,4.60
2022-10-21T22:30:20.410Z,4.20
2022-10-21T22:32:43.406Z,4.50
2022-10-21T22:33:56.106Z,4.30
2022-10-21T22:35:24.510Z,3.80
2022-10-21T22:38:17.668Z,4.40
2022-10-21T22:40:19.671Z,4.10
2022-10-21T22:42:41.593Z,4.00
2022-10-21T22:46:29.135Z,3.90
2022-10-21T22:48:50.832Z,4.00
2022-10-21T22:52:18.542Z,3.60
2022-10-21T22:55:27.556Z,4.20
2022-10-21T22:57:26.557Z,3.70
2022-10-21T23:06:52.048Z,4.20
2022-10-21T23:09:30.985Z,4.70
2022-10-21T23:12:13.761Z,4.60
2022-10-21T23:14:03.188Z,4.10
2022-10-21T23:21:48.282Z,4.20
2022-10-21T23:24:06.952Z,4.60
2022-10-21T23:26:16.819Z,4.20
2022-10-21T23:27:51.596Z,5.00
2022-10-21T23:35:11.736Z,4.70
2022-10-21T23:37:29.752Z,4.40
2022-10-21T23:40:38.574Z,4.90
2022-10-21T23:42:45.746Z,4.80
2022-10-21T23:45:54.263Z,4.80
2022-10-21T23:54:25.047Z,5.70
2022-10-21T23:56:32.254Z,5.40
2022-10-21T23:58:21.308Z,7.10
